sensor_id;sensor_type;location;lat;lon;timestamp;P1;durP1;ratioP1;P2;durP2;ratioP2
21777;SDS011;11050;52.222;20.916;2023-06-05T00:02:17;10.98;;;2.80;;
21777;SDS011;11050;52.222;20.916;2023-06-05T00:04:42;6.15;;;3.00;;
21777;SDS011;11050;52.222;20.916;2023-06-05T00:07:08;7.07;;;3.00;;
21777;SDS011;11050;52.222;20.916;2023-06-05T00:09:34;6.07;;;2.78;;
21777;SDS011;11050;52.222;20.916;2023-06-05T00:12:00;5.05;;;2.25;;
21777;SDS011;11050;52.222;20.916;2023-06-05T00:14:26;6.45;;;2.70;;
21777;SDS011;11050;52.222;20.916;2023-06-05T00:16:51;6.38;;;2.80;;
21777;SDS011;11050;52.222;20.916;2023-06-05T00:19:17;3.20;;;2.20;;
21777;SDS011;11050;52.222;20.916;2023-06-05T00:21:43;3.58;;;2.50;;
21777;SDS011;11050;52.222;20.916;2023-06-05T00:24:09;4.45;;;2.25;;
21777;SDS011;11050;52.222;20.916;2023-06-05T00:26:34;4.18;;;2.42;;
21777;SDS011;11050;52.222;20.916;2023-06-05T00:29:00;4.18;;;2.47;;
21777;SDS011;11050;52.222;20.916;2023-06-05T00:31:26;3.85;;;2.70;;
21777;SDS011;11050;52.222;20.916;2023-06-05T00:33:52;3.83;;;2.55;;
21777;SDS011;11050;52.222;20.916;2023-06-05T00:36:17;4.78;;;2.40;;
21777;SDS011;11050;52.222;20.916;2023-06-05T00:38:47;4.43;;;2.83;;
21777;SDS011;11050;52.222;20.916;2023-06-05T00:41:15;4.43;;;2.13;;
21777;SDS011;11050;52.222;20.916;2023-06-05T00:43:41;5.53;;;2.50;;
21777;SDS011;11050;52.222;20.916;2023-06-05T00:46:07;3.60;;;2.50;;
21777;SDS011;11050;52.222;20.916;2023-06-05T00:48:33;7.05;;;2.75;;
21777;SDS011;11050;52.222;20.916;2023-06-05T00:51:00;4.65;;;2.92;;
21777;SDS011;11050;52.222;20.916;2023-06-05T00:53:26;4.95;;;2.90;;
21777;SDS011;11050;52.222;20.916;2023-06-05T00:55:55;5.45;;;3.08;;
21777;SDS011;11050;52.222;20.916;2023-06-05T00:58:22;6.20;;;3.33;;
21777;SDS011;11050;52.222;20.916;2023-06-05T01:00:47;4.97;;;2.70;;
21777;SDS011;11050;52.222;20.916;2023-06-05T01:03:14;4.40;;;2.60;;
21777;SDS011;11050;52.222;20.916;2023-06-05T01:05:41;5.68;;;2.70;;
21777;SDS011;11050;52.222;20.916;2023-06-05T01:08:08;4.78;;;2.78;;
21777;SDS011;11050;52.222;20.916;2023-06-05T01:10:37;5.25;;;2.55;;
21777;SDS011;11050;52.222;20.916;2023-06-05T01:13:10;5.45;;;3.35;;
21777;SDS011;11050;52.222;20.916;2023-06-05T01:15:50;4.78;;;2.97;;
21777;SDS011;11050;52.222;20.916;2023-06-05T01:18:19;4.85;;;2.70;;
21777;SDS011;11050;52.222;20.916;2023-06-05T01:20:48;5.53;;;3.00;;
21777;SDS011;11050;52.222;20.916;2023-06-05T01:23:13;7.25;;;3.00;;
21777;SDS011;11050;52.222;20.916;2023-06-05T01:25:39;5.63;;;2.72;;
21777;SDS011;11050;52.222;20.916;2023-06-05T01:28:08;6.45;;;2.97;;
21777;SDS011;11050;52.222;20.916;2023-06-05T01:33:48;6.25;;;2.97;;
21777;SDS011;11050;52.222;20.916;2023-06-05T01:36:21;4.82;;;2.65;;
21777;SDS011;11050;52.222;20.916;2023-06-05T01:38:49;5.72;;;2.97;;
21777;SDS011;11050;52.222;20.916;2023-06-05T01:41:18;6.20;;;3.00;;
21777;SDS011;11050;52.222;20.916;2023-06-05T01:43:46;5.70;;;2.92;;
21777;SDS011;11050;52.222;20.916;2023-06-05T01:46:15;5.75;;;3.08;;
21777;SDS011;11050;52.222;20.916;2023-06-05T01:48:43;6.85;;;2.60;;
21777;SDS011;11050;52.222;20.916;2023-06-05T01:51:10;5.45;;;3.15;;
21777;SDS011;11050;52.222;20.916;2023-06-05T01:53:35;8.13;;;3.00;;
21777;SDS011;11050;52.222;20.916;2023-06-05T01:56:01;9.65;;;2.92;;
21777;SDS011;11050;52.222;20.916;2023-06-05T01:58:28;7.35;;;3.25;;
21777;SDS011;11050;52.222;20.916;2023-06-05T02:00:54;5.90;;;2.60;;
21777;SDS011;11050;52.222;20.916;2023-06-05T02:03:22;9.07;;;3.08;;
21777;SDS011;11050;52.222;20.916;2023-06-05T02:05:49;10.65;;;2.85;;
21777;SDS011;11050;52.222;20.916;2023-06-05T02:08:16;8.50;;;2.93;;
21777;SDS011;11050;52.222;20.916;2023-06-05T02:10:47;4.03;;;2.80;;
21777;SDS011;11050;52.222;20.916;2023-06-05T02:13:14;7.45;;;2.97;;
21777;SDS011;11050;52.222;20.916;2023-06-05T02:15:40;6.77;;;2.77;;
21777;SDS011;11050;52.222;20.916;2023-06-05T02:18:07;5.63;;;2.90;;
21777;SDS011;11050;52.222;20.916;2023-06-05T02:20:32;5.22;;;2.85;;
21777;SDS011;11050;52.222;20.916;2023-06-05T02:23:00;7.80;;;3.30;;
21777;SDS011;11050;52.222;20.916;2023-06-05T02:25:27;3.58;;;2.67;;
21777;SDS011;11050;52.222;20.916;2023-06-05T02:27:54;6.82;;;3.00;;
21777;SDS011;11050;52.222;20.916;2023-06-05T02:30:21;4.93;;;2.43;;
21777;SDS011;11050;52.222;20.916;2023-06-05T02:32:47;5.38;;;2.67;;
21777;SDS011;11050;52.222;20.916;2023-06-05T02:35:13;6.55;;;2.83;;
21777;SDS011;11050;52.222;20.916;2023-06-05T02:37:40;5.75;;;2.97;;
21777;SDS011;11050;52.222;20.916;2023-06-05T02:40:09;6.05;;;2.75;;
21777;SDS011;11050;52.222;20.916;2023-06-05T02:42:37;8.52;;;2.97;;
21777;SDS011;11050;52.222;20.916;2023-06-05T02:45:03;7.33;;;2.90;;
21777;SDS011;11050;52.222;20.916;2023-06-05T02:47:29;7.25;;;3.33;;
21777;SDS011;11050;52.222;20.916;2023-06-05T02:49:56;4.93;;;2.50;;
21777;SDS011;11050;52.222;20.916;2023-06-05T02:52:23;8.07;;;2.87;;
21777;SDS011;11050;52.222;20.916;2023-06-05T02:54:49;10.15;;;3.42;;
21777;SDS011;11050;52.222;20.916;2023-06-05T02:57:18;4.38;;;2.88;;
21777;SDS011;11050;52.222;20.916;2023-06-05T02:59:44;6.22;;;3.20;;
21777;SDS011;11050;52.222;20.916;2023-06-05T03:02:10;8.27;;;3.63;;
21777;SDS011;11050;52.222;20.916;2023-06-05T03:04:36;6.37;;;3.07;;
21777;SDS011;11050;52.222;20.916;2023-06-05T03:07:05;9.00;;;2.93;;
21777;SDS011;11050;52.222;20.916;2023-06-05T03:09:33;7.53;;;2.55;;
21777;SDS011;11050;52.222;20.916;2023-06-05T03:11:58;5.68;;;3.05;;
21777;SDS011;11050;52.222;20.916;2023-06-05T03:14:24;6.97;;;2.73;;
21777;SDS011;11050;52.222;20.916;2023-06-05T03:16:53;8.43;;;3.22;;
21777;SDS011;11050;52.222;20.916;2023-06-05T03:19:19;5.90;;;3.13;;
21777;SDS011;11050;52.222;20.916;2023-06-05T03:21:45;10.10;;;3.33;;
21777;SDS011;11050;52.222;20.916;2023-06-05T03:24:13;4.90;;;2.38;;
21777;SDS011;11050;52.222;20.916;2023-06-05T03:26:39;8.77;;;2.72;;
21777;SDS011;11050;52.222;20.916;2023-06-05T03:29:06;4.18;;;2.55;;
21777;SDS011;11050;52.222;20.916;2023-06-05T03:31:33;4.47;;;2.85;;
21777;SDS011;11050;52.222;20.916;2023-06-05T03:34:00;5.90;;;3.05;;
21777;SDS011;11050;52.222;20.916;2023-06-05T03:36:28;6.20;;;3.45;;
21777;SDS011;11050;52.222;20.916;2023-06-05T03:38:55;9.32;;;3.17;;
21777;SDS011;11050;52.222;20.916;2023-06-05T03:41:21;4.75;;;2.75;;
21777;SDS011;11050;52.222;20.916;2023-06-05T03:43:48;10.90;;;3.50;;
21777;SDS011;11050;52.222;20.916;2023-06-05T03:46:17;11.85;;;3.25;;
21777;SDS011;11050;52.222;20.916;2023-06-05T03:48:47;6.10;;;2.85;;
21777;SDS011;11050;52.222;20.916;2023-06-05T03:51:26;6.97;;;3.10;;
21777;SDS011;11050;52.222;20.916;2023-06-05T03:53:55;4.45;;;2.53;;
21777;SDS011;11050;52.222;20.916;2023-06-05T03:56:25;6.47;;;2.83;;
21777;SDS011;11050;52.222;20.916;2023-06-05T03:58:54;7.95;;;2.90;;
21777;SDS011;11050;52.222;20.916;2023-06-05T04:01:21;7.93;;;3.05;;
21777;SDS011;11050;52.222;20.916;2023-06-05T04:03:47;5.47;;;2.70;;
21777;SDS011;11050;52.222;20.916;2023-06-05T04:06:12;3.13;;;2.50;;
21777;SDS011;11050;52.222;20.916;2023-06-05T04:08:38;7.97;;;2.75;;
21777;SDS011;11050;52.222;20.916;2023-06-05T04:11:03;5.72;;;2.95;;
21777;SDS011;11050;52.222;20.916;2023-06-05T04:13:29;8.65;;;3.05;;
21777;SDS011;11050;52.222;20.916;2023-06-05T04:15:55;5.70;;;2.90;;
21777;SDS011;11050;52.222;20.916;2023-06-05T04:18:20;7.15;;;2.75;;
21777;SDS011;11050;52.222;20.916;2023-06-05T04:20:47;4.72;;;2.78;;
21777;SDS011;11050;52.222;20.916;2023-06-05T04:23:12;6.20;;;2.65;;
21777;SDS011;11050;52.222;20.916;2023-06-05T04:25:39;5.85;;;2.60;;
21777;SDS011;11050;52.222;20.916;2023-06-05T04:28:10;6.55;;;2.70;;
21777;SDS011;11050;52.222;20.916;2023-06-05T04:30:36;10.57;;;2.70;;
21777;SDS011;11050;52.222;20.916;2023-06-05T04:33:03;17.70;;;2.90;;
21777;SDS011;11050;52.222;20.916;2023-06-05T04:35:31;10.57;;;3.08;;
21777;SDS011;11050;52.222;20.916;2023-06-05T04:37:58;6.45;;;3.20;;
21777;SDS011;11050;52.222;20.916;2023-06-05T04:40:24;12.02;;;2.92;;
21777;SDS011;11050;52.222;20.916;2023-06-05T04:42:50;9.45;;;2.63;;
21777;SDS011;11050;52.222;20.916;2023-06-05T04:45:18;8.57;;;2.28;;
21777;SDS011;11050;52.222;20.916;2023-06-05T04:47:44;10.07;;;2.55;;
21777;SDS011;11050;52.222;20.916;2023-06-05T04:50:20;13.45;;;3.03;;
21777;SDS011;11050;52.222;20.916;2023-06-05T04:52:52;8.68;;;2.55;;
21777;SDS011;11050;52.222;20.916;2023-06-05T04:55:18;11.65;;;2.42;;
21777;SDS011;11050;52.222;20.916;2023-06-05T04:57:45;9.18;;;2.05;;
21777;SDS011;11050;52.222;20.916;2023-06-05T05:00:13;5.63;;;2.00;;
21777;SDS011;11050;52.222;20.916;2023-06-05T05:02:42;5.90;;;2.33;;
21777;SDS011;11050;52.222;20.916;2023-06-05T05:05:08;7.53;;;2.00;;
21777;SDS011;11050;52.222;20.916;2023-06-05T05:07:39;3.60;;;1.50;;
21777;SDS011;11050;52.222;20.916;2023-06-05T05:10:07;10.75;;;1.98;;
21777;SDS011;11050;52.222;20.916;2023-06-05T05:12:36;7.80;;;2.10;;
21777;SDS011;11050;52.222;20.916;2023-06-05T05:15:03;3.63;;;1.92;;
21777;SDS011;11050;52.222;20.916;2023-06-05T05:17:30;8.43;;;2.38;;
21777;SDS011;11050;52.222;20.916;2023-06-05T05:19:56;6.63;;;2.10;;
21777;SDS011;11050;52.222;20.916;2023-06-05T05:22:22;7.45;;;1.77;;
21777;SDS011;11050;52.222;20.916;2023-06-05T05:24:49;5.07;;;2.03;;
21777;SDS011;11050;52.222;20.916;2023-06-05T05:27:15;3.50;;;1.75;;
21777;SDS011;11050;52.222;20.916;2023-06-05T05:29:41;4.35;;;2.05;;
21777;SDS011;11050;52.222;20.916;2023-06-05T05:32:06;4.25;;;1.85;;
21777;SDS011;11050;52.222;20.916;2023-06-05T05:34:32;12.35;;;2.35;;
21777;SDS011;11050;52.222;20.916;2023-06-05T05:37:00;7.25;;;2.20;;
21777;SDS011;11050;52.222;20.916;2023-06-05T05:39:26;8.77;;;2.40;;
21777;SDS011;11050;52.222;20.916;2023-06-05T05:41:52;9.63;;;1.98;;
21777;SDS011;11050;52.222;20.916;2023-06-05T05:44:17;15.73;;;3.05;;
21777;SDS011;11050;52.222;20.916;2023-06-05T05:46:45;7.78;;;2.50;;
21777;SDS011;11050;52.222;20.916;2023-06-05T05:49:12;11.15;;;2.33;;
21777;SDS011;11050;52.222;20.916;2023-06-05T05:51:38;9.77;;;2.22;;
21777;SDS011;11050;52.222;20.916;2023-06-05T05:54:05;7.95;;;2.45;;
21777;SDS011;11050;52.222;20.916;2023-06-05T05:56:30;7.05;;;2.38;;
21777;SDS011;11050;52.222;20.916;2023-06-05T05:58:56;7.68;;;2.28;;
21777;SDS011;11050;52.222;20.916;2023-06-05T06:01:22;4.88;;;2.28;;
21777;SDS011;11050;52.222;20.916;2023-06-05T06:03:48;7.07;;;2.28;;
21777;SDS011;11050;52.222;20.916;2023-06-05T06:06:13;16.40;;;2.38;;
21777;SDS011;11050;52.222;20.916;2023-06-05T06:08:39;5.28;;;2.00;;
21777;SDS011;11050;52.222;20.916;2023-06-05T06:11:05;5.60;;;2.10;;
21777;SDS011;11050;52.222;20.916;2023-06-05T06:13:31;9.65;;;2.58;;
21777;SDS011;11050;52.222;20.916;2023-06-05T06:15:58;8.45;;;2.00;;
21777;SDS011;11050;52.222;20.916;2023-06-05T06:18:26;6.50;;;2.38;;
21777;SDS011;11050;52.222;20.916;2023-06-05T06:20:51;7.97;;;2.13;;
21777;SDS011;11050;52.222;20.916;2023-06-05T06:23:17;10.32;;;2.47;;
21777;SDS011;11050;52.222;20.916;2023-06-05T06:25:42;9.52;;;2.90;;
21777;SDS011;11050;52.222;20.916;2023-06-05T06:28:08;13.43;;;3.15;;
21777;SDS011;11050;52.222;20.916;2023-06-05T06:30:34;11.00;;;2.72;;
21777;SDS011;11050;52.222;20.916;2023-06-05T06:33:01;4.70;;;2.30;;
21777;SDS011;11050;52.222;20.916;2023-06-05T06:35:29;3.65;;;2.35;;
21777;SDS011;11050;52.222;20.916;2023-06-05T06:37:58;9.15;;;2.25;;
21777;SDS011;11050;52.222;20.916;2023-06-05T06:40:24;6.05;;;1.90;;
21777;SDS011;11050;52.222;20.916;2023-06-05T06:42:50;10.77;;;2.08;;
21777;SDS011;11050;52.222;20.916;2023-06-05T06:45:16;5.03;;;1.95;;
21777;SDS011;11050;52.222;20.916;2023-06-05T06:47:42;7.28;;;1.80;;
21777;SDS011;11050;52.222;20.916;2023-06-05T06:50:09;7.20;;;1.95;;
21777;SDS011;11050;52.222;20.916;2023-06-05T06:52:35;6.97;;;1.67;;
21777;SDS011;11050;52.222;20.916;2023-06-05T06:55:01;3.05;;;1.60;;
21777;SDS011;11050;52.222;20.916;2023-06-05T06:57:27;5.50;;;1.70;;
21777;SDS011;11050;52.222;20.916;2023-06-05T06:59:52;13.13;;;2.30;;
21777;SDS011;11050;52.222;20.916;2023-06-05T07:02:18;5.72;;;2.00;;
21777;SDS011;11050;52.222;20.916;2023-06-05T07:04:47;7.80;;;1.70;;
21777;SDS011;11050;52.222;20.916;2023-06-05T07:07:15;12.10;;;1.75;;
21777;SDS011;11050;52.222;20.916;2023-06-05T07:09:43;6.50;;;1.27;;
21777;SDS011;11050;52.222;20.916;2023-06-05T07:12:12;3.72;;;1.23;;
21777;SDS011;11050;52.222;20.916;2023-06-05T07:14:40;4.05;;;1.48;;
21777;SDS011;11050;52.222;20.916;2023-06-05T07:17:06;3.25;;;1.30;;
21777;SDS011;11050;52.222;20.916;2023-06-05T07:19:33;6.50;;;1.20;;
21777;SDS011;11050;52.222;20.916;2023-06-05T07:22:01;2.25;;;1.08;;
21777;SDS011;11050;52.222;20.916;2023-06-05T07:24:31;2.40;;;0.98;;
21777;SDS011;11050;52.222;20.916;2023-06-05T07:27:06;4.15;;;1.85;;
21777;SDS011;11050;52.222;20.916;2023-06-05T07:29:33;1.45;;;1.00;;
21777;SDS011;11050;52.222;20.916;2023-06-05T07:31:59;3.95;;;1.35;;
21777;SDS011;11050;52.222;20.916;2023-06-05T07:34:25;4.32;;;1.20;;
21777;SDS011;11050;52.222;20.916;2023-06-05T07:36:52;5.15;;;1.48;;
21777;SDS011;11050;52.222;20.916;2023-06-05T07:39:19;4.03;;;1.40;;
21777;SDS011;11050;52.222;20.916;2023-06-05T07:41:45;7.90;;;1.55;;
21777;SDS011;11050;52.222;20.916;2023-06-05T07:44:12;3.17;;;1.70;;
21777;SDS011;11050;52.222;20.916;2023-06-05T07:46:40;4.25;;;1.70;;
21777;SDS011;11050;52.222;20.916;2023-06-05T07:49:10;4.43;;;1.67;;
21777;SDS011;11050;52.222;20.916;2023-06-05T07:51:36;2.00;;;1.27;;
21777;SDS011;11050;52.222;20.916;2023-06-05T07:54:11;3.45;;;1.27;;
21777;SDS011;11050;52.222;20.916;2023-06-05T07:56:40;4.50;;;1.75;;
21777;SDS011;11050;52.222;20.916;2023-06-05T07:59:06;5.55;;;1.50;;
21777;SDS011;11050;52.222;20.916;2023-06-05T08:01:33;2.78;;;1.40;;
21777;SDS011;11050;52.222;20.916;2023-06-05T08:04:02;2.67;;;1.45;;
21777;SDS011;11050;52.222;20.916;2023-06-05T08:06:29;2.83;;;1.48;;
21777;SDS011;11050;52.222;20.916;2023-06-05T08:08:56;2.50;;;1.20;;
21777;SDS011;11050;52.222;20.916;2023-06-05T08:11:26;7.07;;;1.25;;
21777;SDS011;11050;52.222;20.916;2023-06-05T08:13:53;2.95;;;1.40;;
21777;SDS011;11050;52.222;20.916;2023-06-05T08:16:20;8.32;;;1.30;;
21777;SDS011;11050;52.222;20.916;2023-06-05T08:18:46;3.53;;;1.30;;
21777;SDS011;11050;52.222;20.916;2023-06-05T08:21:12;2.30;;;1.23;;
21777;SDS011;11050;52.222;20.916;2023-06-05T08:23:38;4.35;;;1.30;;
21777;SDS011;11050;52.222;20.916;2023-06-05T08:26:04;4.22;;;1.20;;
21777;SDS011;11050;52.222;20.916;2023-06-05T08:28:39;4.00;;;1.92;;
21777;SDS011;11050;52.222;20.916;2023-06-05T08:31:07;3.30;;;1.67;;
21777;SDS011;11050;52.222;20.916;2023-06-05T08:33:34;4.95;;;1.58;;
21777;SDS011;11050;52.222;20.916;2023-06-05T08:36:02;4.32;;;1.30;;
21777;SDS011;11050;52.222;20.916;2023-06-05T08:38:29;3.75;;;1.20;;
21777;SDS011;11050;52.222;20.916;2023-06-05T08:41:04;3.20;;;1.30;;
21777;SDS011;11050;52.222;20.916;2023-06-05T08:43:41;3.83;;;1.50;;
21777;SDS011;11050;52.222;20.916;2023-06-05T08:46:09;3.30;;;1.70;;
21777;SDS011;11050;52.222;20.916;2023-06-05T08:48:40;3.25;;;1.50;;
21777;SDS011;11050;52.222;20.916;2023-06-05T08:51:15;1.45;;;1.17;;
21777;SDS011;11050;52.222;20.916;2023-06-05T08:54:02;3.30;;;1.50;;
21777;SDS011;11050;52.222;20.916;2023-06-05T08:56:35;1.55;;;1.27;;
21777;SDS011;11050;52.222;20.916;2023-06-05T08:59:03;3.22;;;1.50;;
21777;SDS011;11050;52.222;20.916;2023-06-05T09:01:31;4.15;;;1.42;;
21777;SDS011;11050;52.222;20.916;2023-06-05T09:04:00;1.83;;;1.30;;
21777;SDS011;11050;52.222;20.916;2023-06-05T09:06:27;3.15;;;1.55;;
21777;SDS011;11050;52.222;20.916;2023-06-05T09:08:53;3.50;;;1.70;;
21777;SDS011;11050;52.222;20.916;2023-06-05T09:11:28;4.50;;;1.63;;
21777;SDS011;11050;52.222;20.916;2023-06-05T09:13:58;3.50;;;1.65;;
21777;SDS011;11050;52.222;20.916;2023-06-05T09:19:03;2.42;;;1.35;;
21777;SDS011;11050;52.222;20.916;2023-06-05T09:21:30;2.65;;;1.33;;
21777;SDS011;11050;52.222;20.916;2023-06-05T09:29:21;1.45;;;1.30;;
21777;SDS011;11050;52.222;20.916;2023-06-05T09:32:06;5.05;;;1.60;;
21777;SDS011;11050;52.222;20.916;2023-06-05T09:34:34;2.83;;;1.30;;
21777;SDS011;11050;52.222;20.916;2023-06-05T09:37:03;2.90;;;1.30;;
21777;SDS011;11050;52.222;20.916;2023-06-05T09:39:38;3.35;;;1.60;;
21777;SDS011;11050;52.222;20.916;2023-06-05T09:42:08;3.75;;;1.58;;
21777;SDS011;11050;52.222;20.916;2023-06-05T09:44:34;5.43;;;1.60;;
21777;SDS011;11050;52.222;20.916;2023-06-05T09:47:04;6.10;;;1.60;;
21777;SDS011;11050;52.222;20.916;2023-06-05T09:52:06;3.08;;;1.42;;
21777;SDS011;11050;52.222;20.916;2023-06-05T09:54:36;2.35;;;1.52;;
21777;SDS011;11050;52.222;20.916;2023-06-05T09:57:05;4.95;;;1.73;;
21777;SDS011;11050;52.222;20.916;2023-06-05T09:59:35;3.03;;;1.55;;
21777;SDS011;11050;52.222;20.916;2023-06-05T10:02:15;1.83;;;1.50;;
21777;SDS011;11050;52.222;20.916;2023-06-05T10:04:58;2.25;;;1.40;;
21777;SDS011;11050;52.222;20.916;2023-06-05T10:07:29;5.28;;;1.60;;
21777;SDS011;11050;52.222;20.916;2023-06-05T10:10:05;2.90;;;1.83;;
21777;SDS011;11050;52.222;20.916;2023-06-05T10:12:34;3.97;;;1.70;;
21777;SDS011;11050;52.222;20.916;2023-06-05T10:15:01;2.58;;;1.33;;
21777;SDS011;11050;52.222;20.916;2023-06-05T10:17:27;4.20;;;1.60;;
21777;SDS011;11050;52.222;20.916;2023-06-05T10:19:53;3.88;;;1.40;;
21777;SDS011;11050;52.222;20.916;2023-06-05T10:22:20;5.07;;;1.48;;
21777;SDS011;11050;52.222;20.916;2023-06-05T10:24:51;3.10;;;1.65;;
21777;SDS011;11050;52.222;20.916;2023-06-05T10:35:47;4.88;;;1.58;;
21777;SDS011;11050;52.222;20.916;2023-06-05T10:38:41;4.25;;;1.88;;
21777;SDS011;11050;52.222;20.916;2023-06-05T10:41:08;4.53;;;1.45;;
21777;SDS011;11050;52.222;20.916;2023-06-05T10:43:47;3.08;;;1.60;;
21777;SDS011;11050;52.222;20.916;2023-06-05T10:49:10;4.32;;;1.55;;
21777;SDS011;11050;52.222;20.916;2023-06-05T10:54:06;3.45;;;1.98;;
21777;SDS011;11050;52.222;20.916;2023-06-05T10:57:15;6.72;;;1.88;;
21777;SDS011;11050;52.222;20.916;2023-06-05T11:07:16;3.40;;;1.83;;
21777;SDS011;11050;52.222;20.916;2023-06-05T11:17:34;9.50;;;1.70;;
21777;SDS011;11050;52.222;20.916;2023-06-05T11:27:43;3.35;;;1.88;;
21777;SDS011;11050;52.222;20.916;2023-06-05T11:30:11;2.22;;;1.73;;
21777;SDS011;11050;52.222;20.916;2023-06-05T11:32:39;4.35;;;1.90;;
21777;SDS011;11050;52.222;20.916;2023-06-05T11:35:05;4.25;;;1.83;;
21777;SDS011;11050;52.222;20.916;2023-06-05T11:37:33;5.22;;;1.50;;
21777;SDS011;11050;52.222;20.916;2023-06-05T11:40:01;4.63;;;1.92;;
21777;SDS011;11050;52.222;20.916;2023-06-05T11:42:40;5.43;;;1.70;;
21777;SDS011;11050;52.222;20.916;2023-06-05T11:45:10;6.70;;;1.92;;
21777;SDS011;11050;52.222;20.916;2023-06-05T11:47:37;3.90;;;1.77;;
21777;SDS011;11050;52.222;20.916;2023-06-05T11:50:07;5.40;;;1.65;;
21777;SDS011;11050;52.222;20.916;2023-06-05T11:52:37;3.67;;;1.60;;
21777;SDS011;11050;52.222;20.916;2023-06-05T11:55:17;5.28;;;1.70;;
21777;SDS011;11050;52.222;20.916;2023-06-05T11:57:46;2.25;;;1.35;;
21777;SDS011;11050;52.222;20.916;2023-06-05T12:00:22;4.82;;;1.90;;
21777;SDS011;11050;52.222;20.916;2023-06-05T12:02:51;2.55;;;1.52;;
21777;SDS011;11050;52.222;20.916;2023-06-05T12:05:17;3.53;;;1.85;;
21777;SDS011;11050;52.222;20.916;2023-06-05T12:07:42;4.93;;;1.67;;
21777;SDS011;11050;52.222;20.916;2023-06-05T12:10:08;4.88;;;1.90;;
21777;SDS011;11050;52.222;20.916;2023-06-05T12:12:35;2.50;;;1.70;;
21777;SDS011;11050;52.222;20.916;2023-06-05T12:15:19;2.67;;;1.88;;
21777;SDS011;11050;52.222;20.916;2023-06-05T12:17:49;5.13;;;1.65;;
21777;SDS011;11050;52.222;20.916;2023-06-05T12:20:20;2.92;;;1.70;;
21777;SDS011;11050;52.222;20.916;2023-06-05T12:22:46;1.55;;;1.45;;
21777;SDS011;11050;52.222;20.916;2023-06-05T12:25:18;4.82;;;2.35;;
21777;SDS011;11050;52.222;20.916;2023-06-05T12:27:47;7.78;;;2.00;;
21777;SDS011;11050;52.222;20.916;2023-06-05T12:30:14;5.70;;;2.20;;
21777;SDS011;11050;52.222;20.916;2023-06-05T12:32:42;4.93;;;2.10;;
21777;SDS011;11050;52.222;20.916;2023-06-05T12:35:21;5.75;;;2.03;;
21777;SDS011;11050;52.222;20.916;2023-06-05T12:37:48;3.38;;;1.83;;
21777;SDS011;11050;52.222;20.916;2023-06-05T12:40:15;3.58;;;1.70;;
21777;SDS011;11050;52.222;20.916;2023-06-05T12:42:46;5.00;;;2.25;;
21777;SDS011;11050;52.222;20.916;2023-06-05T12:45:13;4.32;;;1.90;;
21777;SDS011;11050;52.222;20.916;2023-06-05T12:47:40;5.07;;;2.17;;
21777;SDS011;11050;52.222;20.916;2023-06-05T12:50:07;2.70;;;1.65;;
21777;SDS011;11050;52.222;20.916;2023-06-05T12:52:38;4.25;;;1.83;;
21777;SDS011;11050;52.222;20.916;2023-06-05T12:55:05;4.00;;;1.95;;
21777;SDS011;11050;52.222;20.916;2023-06-05T12:57:32;3.28;;;1.83;;
21777;SDS011;11050;52.222;20.916;2023-06-05T12:59:59;4.43;;;1.83;;
21777;SDS011;11050;52.222;20.916;2023-06-05T13:02:38;4.53;;;1.70;;
21777;SDS011;11050;52.222;20.916;2023-06-05T13:05:13;3.40;;;1.60;;
21777;SDS011;11050;52.222;20.916;2023-06-05T13:07:41;4.03;;;1.90;;
21777;SDS011;11050;52.222;20.916;2023-06-05T13:10:08;4.43;;;2.20;;
21777;SDS011;11050;52.222;20.916;2023-06-05T13:12:36;3.35;;;1.90;;
21777;SDS011;11050;52.222;20.916;2023-06-05T13:15:01;4.03;;;1.88;;
21777;SDS011;11050;52.222;20.916;2023-06-05T13:17:31;4.35;;;1.80;;
21777;SDS011;11050;52.222;20.916;2023-06-05T13:19:59;3.97;;;2.00;;
21777;SDS011;11050;52.222;20.916;2023-06-05T13:22:25;2.42;;;1.65;;
21777;SDS011;11050;52.222;20.916;2023-06-05T13:24:51;4.82;;;1.92;;
21777;SDS011;11050;52.222;20.916;2023-06-05T13:27:16;1.83;;;1.63;;
21777;SDS011;11050;52.222;20.916;2023-06-05T13:29:43;2.83;;;1.60;;
21777;SDS011;11050;52.222;20.916;2023-06-05T13:32:09;3.15;;;1.90;;
21777;SDS011;11050;52.222;20.916;2023-06-05T13:34:36;6.80;;;2.13;;
21777;SDS011;11050;52.222;20.916;2023-06-05T13:37:02;4.75;;;1.63;;
21777;SDS011;11050;52.222;20.916;2023-06-05T13:39:28;2.92;;;1.75;;
21777;SDS011;11050;52.222;20.916;2023-06-05T13:41:54;6.65;;;1.95;;
21777;SDS011;11050;52.222;20.916;2023-06-05T13:44:20;6.95;;;2.17;;
21777;SDS011;11050;52.222;20.916;2023-06-05T13:46:46;4.40;;;1.67;;
21777;SDS011;11050;52.222;20.916;2023-06-05T13:49:11;2.08;;;1.73;;
21777;SDS011;11050;52.222;20.916;2023-06-05T13:51:37;5.25;;;1.80;;
21777;SDS011;11050;52.222;20.916;2023-06-05T13:54:03;3.05;;;1.90;;
21777;SDS011;11050;52.222;20.916;2023-06-05T13:56:30;2.38;;;1.90;;
21777;SDS011;11050;52.222;20.916;2023-06-05T13:58:55;4.80;;;2.00;;
21777;SDS011;11050;52.222;20.916;2023-06-05T14:01:22;3.03;;;1.90;;
21777;SDS011;11050;52.222;20.916;2023-06-05T14:03:48;4.50;;;1.67;;
21777;SDS011;11050;52.222;20.916;2023-06-05T14:06:16;6.30;;;1.92;;
21777;SDS011;11050;52.222;20.916;2023-06-05T14:08:43;3.50;;;1.92;;
21777;SDS011;11050;52.222;20.916;2023-06-05T14:11:09;9.25;;;2.33;;
21777;SDS011;11050;52.222;20.916;2023-06-05T14:13:35;4.00;;;1.95;;
21777;SDS011;11050;52.222;20.916;2023-06-05T14:16:02;4.57;;;1.80;;
21777;SDS011;11050;52.222;20.916;2023-06-05T14:18:28;4.20;;;1.83;;
21777;SDS011;11050;52.222;20.916;2023-06-05T14:20:55;2.40;;;1.63;;
21777;SDS011;11050;52.222;20.916;2023-06-05T14:23:21;4.50;;;1.60;;
21777;SDS011;11050;52.222;20.916;2023-06-05T14:25:51;2.35;;;1.80;;
21777;SDS011;11050;52.222;20.916;2023-06-05T14:28:17;4.15;;;1.58;;
21777;SDS011;11050;52.222;20.916;2023-06-05T14:30:45;4.13;;;1.80;;
21777;SDS011;11050;52.222;20.916;2023-06-05T14:33:11;3.78;;;2.00;;
21777;SDS011;11050;52.222;20.916;2023-06-05T14:35:37;2.55;;;1.52;;
21777;SDS011;11050;52.222;20.916;2023-06-05T14:38:02;2.30;;;1.65;;
21777;SDS011;11050;52.222;20.916;2023-06-05T14:40:28;4.40;;;2.35;;
21777;SDS011;11050;52.222;20.916;2023-06-05T14:42:55;3.83;;;1.75;;
21777;SDS011;11050;52.222;20.916;2023-06-05T14:45:21;2.75;;;2.10;;
21777;SDS011;11050;52.222;20.916;2023-06-05T14:47:46;4.72;;;1.70;;
21777;SDS011;11050;52.222;20.916;2023-06-05T14:50:12;1.98;;;1.75;;
21777;SDS011;11050;52.222;20.916;2023-06-05T14:52:38;5.65;;;1.70;;
21777;SDS011;11050;52.222;20.916;2023-06-05T14:55:04;5.80;;;2.03;;
21777;SDS011;11050;52.222;20.916;2023-06-05T14:57:30;4.15;;;1.83;;
21777;SDS011;11050;52.222;20.916;2023-06-05T14:59:56;4.53;;;2.05;;
21777;SDS011;11050;52.222;20.916;2023-06-05T15:02:21;2.55;;;1.90;;
21777;SDS011;11050;52.222;20.916;2023-06-05T15:04:48;3.17;;;2.30;;
21777;SDS011;11050;52.222;20.916;2023-06-05T15:07:17;6.63;;;2.00;;
21777;SDS011;11050;52.222;20.916;2023-06-05T15:09:47;3.40;;;1.60;;
21777;SDS011;11050;52.222;20.916;2023-06-05T15:12:13;4.00;;;2.03;;
21777;SDS011;11050;52.222;20.916;2023-06-05T15:14:40;4.57;;;1.80;;
21777;SDS011;11050;52.222;20.916;2023-06-05T15:17:06;3.97;;;1.90;;
21777;SDS011;11050;52.222;20.916;2023-06-05T15:19:33;6.43;;;1.92;;
21777;SDS011;11050;52.222;20.916;2023-06-05T15:21:59;2.60;;;1.63;;
21777;SDS011;11050;52.222;20.916;2023-06-05T15:24:26;2.40;;;1.83;;
21777;SDS011;11050;52.222;20.916;2023-06-05T15:26:52;3.60;;;1.85;;
21777;SDS011;11050;52.222;20.916;2023-06-05T15:29:18;4.00;;;1.85;;